Time;durP1;ratioP1;P1;durP2;ratioP2;P2;SDS_P1;SDS_P2;PMS_P1;PMS_P2;Temp;Humidity;BMP_temperature;BMP_pressure;BME280_temperature;BME280_humidity;BME280_pressure;Samples;Min_cycle;Max_cycle;Signal;HPM_P1;HPM_P2
2022/11/05 00:09:27;;;;;;;3.45;2.58;;;;;;;10.70;83.39;99218.78;343465;28;1032;-67
2022/11/05 00:09:30;;;;;;;2.83;2.30;;;;;;;10.43;83.77;99243.28;342728;28;1545;-68
2022/11/05 00:09:42;;;;;;;2.88;2.40;;;;;;;10.44;83.86;99239.75;341722;28;2022;-68
2022/11/05 00:10:02;;;;;;;3.50;2.22;;;;;;;10.48;83.90;99238.72;342204;28;1106;-68
2022/11/05 00:10:25;;;;;;;2.55;1.67;;;;;;;10.48;83.60;99244.78;340822;29;1143;-68
2022/11/05 00:10:37;;;;;;;3.78;3.28;;;;;;;10.42;83.37;99241.56;341754;28;1804;-68
2022/11/05 00:10:49;;;;;;;4.75;4.00;;;;;;;10.47;84.00;99243.09;343130;28;1216;-68
2022/11/05 00:11:01;;;;;;;3.97;3.17;;;;;;;10.46;83.69;99237.94;343577;28;1167;-68
2022/11/05 00:11:13;;;;;;;3.50;2.58;;;;;;;10.37;83.63;99240.00;343487;28;1293;-68
2022/11/05 00:16:47;;;;;;;3.20;2.67;;;;;;;10.62;84.01;99251.19;343209;28;1785;-68
2022/11/05 00:16:59;;;;;;;3.22;2.70;;;;;;;10.57;83.75;99246.19;342872;28;1161;-68
2022/11/05 00:17:11;;;;;;;3.78;3.33;;;;;;;10.61;83.91;99239.97;342335;28;1176;-69
2022/11/05 00:17:23;;;;;;;5.07;4.60;;;;;;;10.65;83.62;99243.28;342957;28;1193;-68
2022/11/05 00:17:35;;;;;;;6.45;5.85;;;;;;;10.66;83.46;99245.81;342726;28;1663;-68
2022/11/05 00:17:47;;;;;;;5.13;4.63;;;;;;;10.64;83.50;99246.78;343404;28;1984;-68
2022/11/05 00:17:59;;;;;;;2.75;2.25;;;;;;;10.65;83.21;99246.72;343505;28;1048;-68
2022/11/05 00:18:11;;;;;;;2.50;1.90;;;;;;;10.70;83.21;99244.78;343383;28;1019;-68
2022/11/05 00:18:23;;;;;;;2.45;1.95;;;;;;;10.63;83.45;99248.53;343295;28;1251;-68
2022/11/05 00:18:35;;;;;;;2.47;1.92;;;;;;;10.57;83.01;99243.59;342895;28;1539;-69
2022/11/05 00:19:05;;;;;;;3.13;2.23;;;;;;;10.57;83.34;99248.78;342962;28;1902;-69
2022/11/05 00:19:17;;;;;;;4.15;3.65;;;;;;;10.48;83.58;99238.72;343033;28;1325;-69
2022/11/05 00:19:29;;;;;;;6.45;5.82;;;;;;;10.52;83.82;99245.50;341746;28;1963;-68
2022/11/05 00:19:40;;;;;;;7.10;6.40;;;;;;;10.56;83.71;99242.75;339515;28;2974;-68
2022/11/05 00:19:52;;;;;;;5.68;5.07;;;;;;;10.58;83.58;99246.13;342504;28;3204;-68
2022/11/05 00:20:05;;;;;;;5.03;4.22;;;;;;;10.57;83.98;99243.59;342312;28;1076;-68
2022/11/05 00:20:17;;;;;;;4.82;3.83;;;;;;;10.52;83.78;99246.38;342171;28;2800;-68
2022/11/05 00:20:29;;;;;;;3.35;3.00;;;;;;;10.50;83.93;99248.19;341378;28;3026;-68
2022/11/05 00:20:41;;;;;;;5.30;4.03;;;;;;;10.55;83.88;99246.25;342240;28;1785;-68
2022/11/05 00:20:53;;;;;;;7.30;6.15;;;;;;;10.57;83.75;99248.78;342213;28;1292;-68
2022/11/05 00:25:12;;;;;;;6.85;6.15;;;;;;;10.57;83.72;99243.59;341794;28;1802;-68
2022/11/05 00:25:15;;;;;;;3.80;3.03;;;;;;;10.68;83.41;99246.59;342500;28;1915;-68
2022/11/05 00:25:28;;;;;;;4.65;3.05;;;;;;;10.74;83.23;99246.34;341530;28;2176;-68
2022/11/05 00:25:40;;;;;;;5.13;3.20;;;;;;;10.80;83.54;99250.47;341607;28;2482;-68
2022/11/05 00:26:04;;;;;;;4.57;3.50;;;;;;;10.70;83.20;99249.13;342010;28;1053;-68
2022/11/05 00:26:16;;;;;;;5.53;3.80;;;;;;;10.74;83.54;99255.91;340940;28;1792;-69
2022/11/05 00:26:30;;;;;;;5.88;3.67;;;;;;;10.79;83.17;99254.81;340379;28;2195;-68
2022/11/05 00:26:41;;;;;;;4.47;3.55;;;;;;;10.83;82.91;99254.72;342004;28;1896;-68
2022/11/05 00:26:54;;;;;;;5.10;2.88;;;;;;;10.85;82.97;99252.91;342374;28;1026;-68
2022/11/05 00:27:06;;;;;;;5.00;2.40;;;;;;;10.82;82.76;99247.81;342190;28;1215;-69
2022/11/05 00:27:18;;;;;;;4.53;2.17;;;;;;;10.83;83.19;99254.72;342158;28;1319;-69
2022/11/05 00:27:32;;;;;;;3.80;2.20;;;;;;;10.88;82.87;99252.75;341967;28;2150;-69
2022/11/05 00:27:50;;;;;;;2.77;2.20;;;;;;;10.88;82.93;99252.75;342091;28;1964;-68
2022/11/05 00:28:02;;;;;;;2.70;2.17;;;;;;;10.89;83.13;99250.09;343653;28;1105;-68
2022/11/05 00:28:14;;;;;;;3.13;2.13;;;;;;;10.81;83.02;99256.53;343259;28;1145;-68
2022/11/05 00:28:27;;;;;;;2.70;1.90;;;;;;;10.78;82.88;99258.34;341728;28;2121;-68
2022/11/05 00:28:42;;;;;;;2.65;1.88;;;;;;;10.75;83.31;99253.25;343305;28;1572;-68
2022/11/05 00:28:54;;;;;;;2.42;1.90;;;;;;;10.75;83.14;99258.44;342210;28;1168;-68
2022/11/05 00:29:06;;;;;;;2.25;1.95;;;;;;;10.73;83.53;99255.06;342244;28;1180;-67
2022/11/05 00:29:18;;;;;;;2.70;2.17;;;;;;;10.75;83.22;99253.25;341997;28;1265;-67
2022/11/05 00:29:30;;;;;;;3.30;2.30;;;;;;;10.77;83.37;99256.63;342607;28;2113;-67
2022/11/05 00:29:42;;;;;;;3.20;2.30;;;;;;;10.79;83.41;99254.00;343286;28;1560;-67
2022/11/05 00:29:54;;;;;;;2.63;2.22;;;;;;;10.79;83.44;99260.03;343619;28;1276;-67
2022/11/05 00:30:06;;;;;;;3.33;2.38;;;;;;;10.79;83.38;99254.00;342724;28;1123;-67
2022/11/05 00:30:24;;;;;;;5.55;2.33;;;;;;;10.77;83.84;99256.63;343111;28;1289;-67
2022/11/05 00:30:36;;;;;;;5.40;2.28;;;;;;;10.70;84.05;99260.38;341487;28;1527;-67
2022/11/05 00:30:48;;;;;;;3.95;2.45;;;;;;;10.71;84.04;99256.88;342054;28;2023;-67
2022/11/05 00:31:12;;;;;;;4.45;2.60;;;;;;;10.71;83.90;99262.09;342125;28;1101;-67
2022/11/05 00:31:24;;;;;;;4.78;2.40;;;;;;;10.66;84.05;99258.81;341454;28;2049;-67
2022/11/05 00:31:36;;;;;;;4.03;2.33;;;;;;;10.66;84.24;99256.19;341250;28;1454;-67
2022/11/05 00:31:48;;;;;;;3.50;2.50;;;;;;;10.69;84.01;99261.28;341933;28;1987;-67
2022/11/05 00:32:00;;;;;;;3.30;2.40;;;;;;;10.72;84.07;99258.56;341958;28;1110;-67
2022/11/05 00:32:12;;;;;;;3.40;2.63;;;;;;;10.73;83.91;99262.88;342082;28;1055;-67
2022/11/05 00:32:24;;;;;;;4.10;2.97;;;;;;;10.70;84.23;99260.38;341845;28;1262;-67
2022/11/05 00:32:36;;;;;;;5.30;2.97;;;;;;;10.62;83.84;99256.41;341544;28;1482;-67
2022/11/05 00:32:49;;;;;;;4.93;2.70;;;;;;;10.49;84.50;99256.03;343356;28;1938;-67
2022/11/05 00:33:02;;;;;;;4.63;2.85;;;;;;;10.46;84.75;99261.34;343545;28;1282;-67
2022/11/05 00:33:14;;;;;;;4.30;2.80;;;;;;;10.46;84.80;99261.34;343581;28;1038;-67
2022/11/05 00:33:26;;;;;;;4.05;2.60;;;;;;;10.47;84.89;99263.03;342694;28;1558;-67
2022/11/05 00:33:39;;;;;;;3.33;2.60;;;;;;;10.50;84.98;99262.91;343141;28;1355;-67
2022/11/05 00:33:51;;;;;;;3.83;2.60;;;;;;;10.54;85.20;99259.28;342058;28;1060;-67
2022/11/05 00:34:03;;;;;;;3.67;2.60;;;;;;;10.56;85.03;99262.66;341881;28;939;-67
2022/11/05 00:34:15;;;;;;;2.80;2.30;;;;;;;10.57;85.27;99261.78;342124;28;1785;-67
2022/11/05 00:34:27;;;;;;;3.90;2.33;;;;;;;10.57;84.88;99259.19;342179;28;1232;-66
2022/11/05 00:34:39;;;;;;;4.53;2.50;;;;;;;10.61;85.06;99259.91;342161;28;1099;-66
2022/11/05 00:34:51;;;;;;;5.10;2.65;;;;;;;10.58;84.99;99260.84;342085;28;1260;-67
2022/11/05 00:35:05;;;;;;;4.50;2.55;;;;;;;10.60;85.04;99264.25;342245;28;1315;-67
2022/11/05 00:35:20;;;;;;;5.28;2.50;;;;;;;10.56;85.03;99262.66;342281;28;1359;-66
2022/11/05 00:35:32;;;;;;;5.63;2.50;;;;;;;10.55;84.91;99261.00;344081;28;1280;-66
2022/11/05 00:35:44;;;;;;;4.70;2.30;;;;;;;10.61;84.79;99252.94;343930;28;1310;-66
2022/11/05 00:35:56;;;;;;;5.03;2.13;;;;;;;10.56;84.79;99260.06;343840;28;2008;-66
2022/11/05 00:36:09;;;;;;;3.65;2.22;;;;;;;10.55;84.71;99261.84;342315;28;1214;-66
2022/11/05 00:36:21;;;;;;;3.50;2.25;;;;;;;10.54;84.83;99265.34;342352;28;1569;-66
2022/11/05 00:36:33;;;;;;;3.30;2.17;;;;;;;10.52;85.13;99263.69;342325;28;2083;-66
2022/11/05 00:36:45;;;;;;;3.90;2.33;;;;;;;10.49;85.21;99266.44;343347;28;1903;-66
2022/11/05 00:36:57;;;;;;;3.88;2.50;;;;;;;10.49;85.24;99261.22;343400;28;1028;-66
2022/11/05 00:37:09;;;;;;;3.97;2.40;;;;;;;10.51;85.33;99257.66;343180;28;1263;-67
2022/11/05 00:37:21;;;;;;;3.90;2.72;;;;;;;10.39;85.39;99260.72;343228;28;1292;-66
2022/11/05 00:37:33;;;;;;;3.83;2.90;;;;;;;10.36;85.39;99263.44;342510;28;2197;-66
2022/11/05 00:37:45;;;;;;;3.13;2.42;;;;;;;10.39;85.59;99258.97;343172;28;2080;-66
2022/11/05 00:38:01;;;;;;;3.07;2.17;;;;;;;10.37;85.84;99258.19;341906;28;1116;-66
2022/11/05 00:38:13;;;;;;;3.05;2.35;;;;;;;10.36;85.95;99259.09;342085;28;1087;-66
2022/11/05 00:38:25;;;;;;;3.10;2.25;;;;;;;10.33;86.22;99263.56;342511;28;1825;-67
2022/11/05 00:38:37;;;;;;;3.25;2.15;;;;;;;10.32;86.40;99262.72;341095;28;1586;-66
2022/11/05 00:38:49;;;;;;;4.13;2.28;;;;;;;10.29;86.21;99260.19;341354;28;1219;-66
2022/11/05 00:39:01;;;;;;;4.25;2.40;;;;;;;10.26;86.18;99262.94;340616;29;1257;-66
2022/11/05 00:39:12;;;;;;;4.07;2.50;;;;;;;10.27;86.61;99256.81;340523;29;1065;-66
2022/11/05 00:39:24;;;;;;;3.58;2.80;;;;;;;10.28;86.49;99266.31;341500;28;1310;-66
2022/11/05 00:39:36;;;;;;;3.22;2.78;;;;;;;10.26;86.72;99265.53;341410;28;1520;-66
2022/11/05 00:39:48;;;;;;;3.60;2.67;;;;;;;10.23;86.74;99263.03;342102;28;2095;-66
2022/11/05 00:40:01;;;;;;;4.20;2.58;;;;;;;10.25;86.92;99257.78;342343;28;1098;-66
2022/11/05 00:40:14;;;;;;;3.63;2.70;;;;;;;10.27;86.92;99262.00;341826;28;1091;-66
2022/11/05 00:40:26;;;;;;;4.35;3.35;;;;;;;10.29;86.78;99257.59;341927;28;1486;-66
2022/11/05 00:40:38;;;;;;;4.47;3.53;;;;;;;10.31;86.44;99268.81;341870;28;1517;-66
2022/11/05 00:40:50;;;;;;;3.97;3.25;;;;;;;10.28;86.87;99263.72;343298;28;1272;-66
2022/11/05 00:41:01;;;;;;;3.55;3.05;;;;;;;10.25;86.74;99258.63;343617;28;1012;-66
2022/11/05 00:41:13;;;;;;;3.55;3.00;;;;;;;10.28;87.29;99265.44;343438;28;1458;-66
2022/11/05 00:41:26;;;;;;;3.50;3.05;;;;;;;10.26;86.84;99270.72;341525;28;2103;-66
2022/11/05 00:41:41;;;;;;;3.75;3.00;;;;;;;10.20;87.20;99261.41;342915;28;1627;-66
2022/11/05 00:45:00;;;;;;;4.28;3.30;;;;;;;9.94;87.88;99264.94;342515;28;1026;-66
2022/11/05 00:45:13;;;;;;;4.63;3.40;;;;;;;9.96;88.27;99267.47;343243;28;1044;-66
2022/11/05 00:45:25;;;;;;;4.43;3.53;;;;;;;9.97;88.25;99264.81;343444;28;1325;-66
2022/11/05 00:45:37;;;;;;;4.35;3.38;;;;;;;9.94;88.13;99267.56;343068;28;1493;-66
2022/11/05 00:45:49;;;;;;;4.15;3.05;;;;;;;9.91;88.15;99265.06;343124;28;1271;-66
2022/11/05 00:46:01;;;;;;;3.65;2.90;;;;;;;9.95;88.76;99269.22;343343;28;1153;-66
2022/11/05 00:46:13;;;;;;;4.05;3.03;;;;;;;9.93;88.49;99262.41;343451;28;1055;-66
2022/11/05 00:46:25;;;;;;;3.88;3.10;;;;;;;9.95;88.54;99265.78;343062;28;1315;-66
2022/11/05 00:46:37;;;;;;;4.05;3.15;;;;;;;9.90;88.57;99275.47;342453;28;1535;-67
2022/11/05 00:49:28;;;;;;;4.70;3.67;;;;;;;9.92;88.41;99261.56;343526;28;1940;-66
2022/11/05 00:49:28;;;;;;;4.70;4.15;;;;;;;9.91;88.80;99269.41;342992;28;1338;-66
2022/11/05 00:49:40;;;;;;;4.85;4.22;;;;;;;9.86;89.33;99260.91;343152;28;1973;-67
2022/11/05 00:49:52;;;;;;;4.30;3.35;;;;;;;9.88;89.38;99265.19;343249;28;1051;-66
2022/11/05 00:50:04;;;;;;;4.05;3.03;;;;;;;9.90;89.19;99265.09;343251;28;1139;-66
2022/11/05 00:50:18;;;;;;;4.32;3.00;;;;;;;9.89;89.45;99263.41;343559;28;1374;-67
2022/11/05 00:50:30;;;;;;;4.13;3.17;;;;;;;9.90;89.63;99268.56;342706;28;1957;-66
2022/11/05 00:50:42;;;;;;;3.75;3.15;;;;;;;9.92;89.28;99261.56;342181;28;1626;-66
2022/11/05 00:50:54;;;;;;;3.25;2.90;;;;;;;9.81;89.41;99263.69;342186;28;1039;-66
2022/11/05 00:51:07;;;;;;;3.03;2.70;;;;;;;9.86;89.53;99266.09;342144;28;1024;-66
2022/11/05 00:51:19;;;;;;;3.80;2.90;;;;;;;9.83;89.68;99269.66;342206;28;1704;-66
2022/11/05 00:51:31;;;;;;;3.80;3.05;;;;;;;9.84;89.72;99263.59;342216;28;1870;-66
2022/11/05 00:51:43;;;;;;;4.15;3.58;;;;;;;9.83;89.71;99267.06;343462;28;1714;-66
2022/11/05 00:52:54;;;;;;;4.90;3.60;;;;;;;9.80;89.85;99259.41;341864;28;1028;-66
2022/11/05 00:52:59;;;;;;;6.22;3.70;;;;;;;9.90;89.84;99267.69;342183;28;1314;-66
2022/11/05 00:53:11;;;;;;;6.13;3.42;;;;;;;9.86;89.91;99261.78;342376;28;1246;-66
2022/11/05 00:53:23;;;;;;;5.45;3.55;;;;;;;9.84;89.70;99268.78;342905;28;1277;-67
2022/11/05 00:53:35;;;;;;;4.80;3.60;;;;;;;9.85;89.83;99269.63;342263;28;1602;-67
2022/11/05 00:53:47;;;;;;;4.65;3.50;;;;;;;9.86;89.58;99266.97;343450;28;1459;-66
2022/11/05 00:53:59;;;;;;;4.28;3.20;;;;;;;9.81;89.58;99268.88;342103;28;1249;-67
2022/11/05 00:54:11;;;;;;;4.30;3.13;;;;;;;9.86;89.73;99268.72;342077;28;1036;-66
2022/11/05 00:54:22;;;;;;;5.78;3.20;;;;;;;9.88;89.66;99265.19;342991;28;1295;-66
2022/11/05 00:54:34;;;;;;;5.90;3.47;;;;;;;9.89;89.83;99266.00;342521;28;2122;-66
2022/11/05 00:54:46;;;;;;;4.00;3.60;;;;;;;9.75;89.58;99263.91;343005;28;1919;-67
2022/11/05 00:54:58;;;;;;;4.65;3.60;;;;;;;9.83;89.48;99266.22;341888;28;1070;-66
2022/11/05 00:55:10;;;;;;;4.30;3.05;;;;;;;9.82;89.62;99273.19;342090;28;1298;-66
2022/11/05 00:55:40;;;;;;;4.22;3.10;;;;;;;9.73;89.95;99263.13;342928;28;1329;-66
2022/11/05 00:55:52;;;;;;;3.42;3.05;;;;;;;9.76;89.84;99265.63;343164;28;1096;-66
2022/11/05 00:56:04;;;;;;;3.58;3.03;;;;;;;9.79;89.76;99270.69;343560;28;1091;-66
2022/11/05 00:56:15;;;;;;;3.97;3.50;;;;;;;9.78;89.90;99269.00;343654;28;1228;-66
2022/11/05 00:56:27;;;;;;;4.55;3.60;;;;;;;9.80;89.91;99270.63;342545;28;2052;-67
2022/11/05 00:56:39;;;;;;;4.43;3.45;;;;;;;9.83;90.10;99266.22;343131;28;1910;-66
2022/11/05 00:56:51;;;;;;;4.22;3.75;;;;;;;9.83;89.87;99267.06;343338;28;1091;-66
2022/11/05 00:57:03;;;;;;;4.65;4.15;;;;;;;9.85;89.97;99270.47;343551;28;1083;-66
2022/11/05 00:57:15;;;;;;;6.00;4.45;;;;;;;9.85;89.84;99270.47;343245;28;1202;-66
2022/11/05 00:57:27;;;;;;;5.63;3.92;;;;;;;9.83;89.85;99261.88;341956;28;2213;-67
2022/11/05 00:57:39;;;;;;;5.32;3.45;;;;;;;9.85;89.75;99267.88;343327;28;1885;-66
2022/11/05 00:57:51;;;;;;;4.68;3.55;;;;;;;9.81;89.91;99274.06;342249;28;1101;-67
2022/11/05 00:58:10;;;;;;;5.32;4.13;;;;;;;9.85;90.07;99265.28;342069;28;1159;-66
2022/11/05 00:58:22;;;;;;;7.63;5.85;;;;;;;9.85;89.84;99272.22;342524;28;1799;-66
2022/11/05 00:58:34;;;;;;;7.80;5.53;;;;;;;9.84;89.82;99268.78;342450;28;2092;-66
2022/11/05 00:58:47;;;;;;;5.50;4.13;;;;;;;9.87;89.73;99267.81;343191;28;2026;-67
2022/11/05 00:58:59;;;;;;;4.20;3.80;;;;;;;9.89;89.87;99266.84;342007;28;1202;-66
2022/11/05 00:59:11;;;;;;;4.40;3.95;;;;;;;9.93;89.49;99271.03;342239;28;1129;-66
2022/11/05 00:59:23;;;;;;;4.88;4.35;;;;;;;9.91;89.55;99267.66;342776;28;1267;-66
2022/11/05 00:59:35;;;;;;;5.47;4.50;;;;;;;9.94;89.37;99270.16;342705;28;2107;-66
2022/11/05 00:59:47;;;;;;;5.35;4.30;;;;;;;9.94;89.40;99270.16;343327;28;1916;-66
2022/11/05 00:59:58;;;;;;;4.70;3.85;;;;;;;9.92;89.01;99269.34;343611;28;1027;-66
2022/11/05 01:00:11;;;;;;;4.90;4.40;;;;;;;9.92;89.72;99274.53;343517;28;1266;-66
2022/11/05 01:00:25;;;;;;;4.80;4.30;;;;;;;9.96;89.23;99270.94;343583;28;1343;-66
2022/11/05 01:00:43;;;;;;;4.47;3.63;;;;;;;10.00;89.13;99274.28;342599;28;1417;-66
2022/11/05 01:00:56;;;;;;;5.38;3.80;;;;;;;10.02;89.05;99266.41;342334;28;1229;-66
2022/11/05 01:01:09;;;;;;;5.28;3.53;;;;;;;10.07;89.23;99269.69;342002;28;1264;-66
2022/11/05 01:01:21;;;;;;;5.40;4.30;;;;;;;10.07;88.81;99264.50;342580;28;1280;-66
2022/11/05 01:01:33;;;;;;;4.95;4.45;;;;;;;10.08;89.10;99271.38;342284;28;1623;-66
2022/11/05 01:01:45;;;;;;;4.80;4.10;;;;;;;10.06;88.46;99265.38;342638;28;1951;-66
2022/11/05 01:01:57;;;;;;;5.13;3.40;;;;;;;10.04;88.89;99275.84;343243;28;1024;-67
2022/11/05 01:02:09;;;;;;;4.95;3.17;;;;;;;9.98;88.47;99271.72;342063;28;1198;-66
2022/11/05 01:02:21;;;;;;;5.68;3.35;;;;;;;10.00;88.47;99269.09;342835;28;1250;-67
2022/11/05 01:02:33;;;;;;;7.80;6.28;;;;;;;9.94;88.97;99272.75;342580;28;2230;-67
2022/11/05 01:02:46;;;;;;;8.60;7.13;;;;;;;9.91;88.89;99274.59;341399;28;1909;-67
2022/11/05 01:03:04;;;;;;;6.80;4.88;;;;;;;9.95;89.13;99273.59;342051;28;1271;-66
2022/11/05 01:03:18;;;;;;;5.28;4.10;;;;;;;9.93;89.09;99268.44;341800;28;3083;-66
2022/11/05 01:03:33;;;;;;;5.07;4.13;;;;;;;9.88;89.14;99272.97;341400;28;1939;-67
2022/11/05 01:03:45;;;;;;;4.35;3.72;;;;;;;9.90;89.17;99278.94;341969;28;1187;-66
2022/11/05 01:04:02;;;;;;;3.90;3.50;;;;;;;9.96;89.23;99275.25;341359;28;2227;-66
2022/11/05 01:04:14;;;;;;;3.45;3.15;;;;;;;9.86;89.55;99277.38;342186;28;1078;-66
2022/11/05 01:04:26;;;;;;;3.42;3.10;;;;;;;9.90;89.57;99273.75;341759;28;1838;-67
2022/11/05 01:04:38;;;;;;;4.40;3.65;;;;;;;9.90;89.15;99278.06;341293;28;1863;-67
2022/11/05 01:04:50;;;;;;;4.60;3.88;;;;;;;9.89;89.35;99277.25;341709;28;1874;-67
2022/11/05 01:05:02;;;;;;;5.47;3.95;;;;;;;9.91;89.01;99270.25;341937;28;1864;-67
2022/11/05 01:05:15;;;;;;;5.18;3.90;;;;;;;9.92;89.21;99276.28;340397;28;1879;-67
2022/11/05 01:05:28;;;;;;;5.32;4.10;;;;;;;9.98;89.09;99273.47;342181;28;1633;-67
2022/11/05 01:05:46;;;;;;;4.55;3.67;;;;;;;10.00;88.99;99277.72;341010;28;1592;-66
2022/11/05 01:06:06;;;;;;;4.20;3.40;;;;;;;10.06;88.67;99274.06;343080;28;1475;-67
2022/11/05 01:06:18;;;;;;;6.50;4.72;;;;;;;10.07;88.85;99274.88;341680;28;1493;-66
2022/11/05 01:06:30;;;;;;;6.18;4.70;;;;;;;10.06;88.48;99273.19;342227;28;1134;-67
2022/11/05 01:06:42;;;;;;;5.63;3.75;;;;;;;10.04;88.74;99278.44;342084;28;1253;-67
2022/11/05 01:06:54;;;;;;;5.28;3.33;;;;;;;10.06;88.75;99278.38;341780;28;1913;-67
2022/11/05 01:07:06;;;;;;;5.45;3.40;;;;;;;10.07;88.64;99275.72;341302;28;1839;-67
2022/11/05 01:07:18;;;;;;;3.83;3.40;;;;;;;10.10;88.64;99279.94;341976;28;1645;-67
2022/11/05 01:07:29;;;;;;;4.10;3.30;;;;;;;10.11;88.72;99276.47;343108;28;1298;-68
2022/11/05 01:07:41;;;;;;;5.10;3.97;;;;;;;10.11;88.38;99271.28;342892;28;1837;-67
2022/11/05 01:07:54;;;;;;;6.18;4.70;;;;;;;10.07;88.11;99274.88;343458;28;991;-67
2022/11/05 01:08:07;;;;;;;6.60;5.15;;;;;;;10.11;88.58;99268.69;343597;28;1201;-67
2022/11/05 01:08:21;;;;;;;6.07;4.47;;;;;;;10.15;88.34;99272.84;343402;28;1357;-67
2022/11/05 01:08:33;;;;;;;5.88;4.28;;;;;;;10.18;88.17;99272.72;343947;28;767;-67
2022/11/05 01:08:45;;;;;;;4.90;4.00;;;;;;;10.17;88.42;99271.03;343666;28;1103;-67
2022/11/05 01:08:57;;;;;;;4.63;3.90;;;;;;;10.17;88.42;99273.66;344682;28;1008;-67
2022/11/05 01:09:09;;;;;;;4.43;4.00;;;;;;;10.17;88.35;99276.25;344742;28;1051;-67
2022/11/05 01:09:21;;;;;;;4.80;3.80;;;;;;;10.20;88.21;99276.97;343421;28;1143;-68
2022/11/05 01:09:33;;;;;;;4.88;3.83;;;;;;;10.23;87.88;99276.00;342581;28;1760;-67
2022/11/05 01:09:45;;;;;;;5.63;4.20;;;;;;;10.22;88.02;99274.31;342691;28;1926;-67
2022/11/05 01:09:57;;;;;;;5.95;4.28;;;;;;;10.23;87.94;99270.81;343650;28;1059;-67
2022/11/05 01:10:09;;;;;;;5.43;3.63;;;;;;;10.28;87.68;99279.31;343616;28;1035;-67
2022/11/05 01:10:22;;;;;;;5.38;3.65;;;;;;;10.26;87.46;99275.91;343707;28;1298;-67
2022/11/05 01:10:49;;;;;;;5.43;4.22;;;;;;;10.26;87.61;99275.91;342949;28;1751;-67
2022/11/05 01:11:11;;;;;;;5.10;3.75;;;;;;;10.29;87.17;99274.94;342487;28;1027;-67
2022/11/05 01:11:31;;;;;;;4.10;3.70;;;;;;;10.31;87.33;99278.38;342999;28;1266;-67
2022/11/05 01:11:44;;;;;;;5.20;4.50;;;;;;;10.29;87.27;99280.97;342154;28;1092;-67
2022/11/05 01:11:56;;;;;;;6.82;5.28;;;;;;;10.30;87.28;99277.53;342958;28;2549;-67
2022/11/05 01:12:08;;;;;;;8.50;5.22;;;;;;;10.33;87.26;99277.41;343568;28;1875;-67
2022/11/05 01:12:20;;;;;;;6.93;4.50;;;;;;;10.35;87.35;99274.75;343119;28;1313;-67
2022/11/05 01:12:32;;;;;;;5.88;4.40;;;;;;;10.36;87.06;99276.41;343364;28;1758;-67
2022/11/05 01:12:44;;;;;;;9.00;8.07;;;;;;;10.37;87.27;99283.31;343222;28;1081;-68
2022/11/05 01:12:57;;;;;;;11.00;9.90;;;;;;;10.39;87.31;99282.34;343016;28;2139;-67
2022/11/05 01:13:10;;;;;;;9.65;8.68;;;;;;;10.36;87.07;99281.63;342947;28;1571;-67
2022/11/05 01:13:29;;;;;;;5.90;4.50;;;;;;;10.27;87.36;99277.59;343137;28;1367;-68
2022/11/05 01:13:41;;;;;;;4.80;3.58;;;;;;;10.33;87.00;99277.41;343581;28;1241;-67
2022/11/05 01:13:52;;;;;;;4.10;3.53;;;;;;;10.36;87.42;99276.41;342969;28;1896;-67
2022/11/05 01:14:07;;;;;;;4.20;3.67;;;;;;;10.36;87.24;99277.28;343560;28;1802;-67
2022/11/05 01:14:19;;;;;;;4.15;3.65;;;;;;;10.38;87.15;99279.81;343175;28;1301;-67
2022/11/05 01:14:31;;;;;;;4.00;3.60;;;;;;;10.37;86.91;99278.13;343334;28;2527;-67
2022/11/05 01:14:43;;;;;;;4.15;3.75;;;;;;;10.38;86.97;99285.88;343457;28;1258;-67
2022/11/05 01:14:55;;;;;;;4.10;3.70;;;;;;;10.41;87.16;99281.47;343364;28;1039;-67
2022/11/05 01:15:08;;;;;;;4.32;3.75;;;;;;;10.41;87.13;99279.72;342045;28;1064;-67
2022/11/05 01:15:20;;;;;;;6.53;4.68;;;;;;;10.39;87.14;99282.34;341925;28;1353;-67
2022/11/05 01:15:34;;;;;;;7.75;6.28;;;;;;;10.43;86.89;99283.09;341885;28;1052;-67
2022/11/05 01:15:47;;;;;;;7.32;5.93;;;;;;;10.41;86.90;99284.06;342021;28;1270;-68
2022/11/05 01:16:05;;;;;;;5.85;4.35;;;;;;;10.45;86.89;99281.28;342075;28;1028;-67
2022/11/05 01:16:16;;;;;;;4.10;3.60;;;;;;;10.46;86.80;99279.53;342065;28;1112;-68
2022/11/05 01:16:28;;;;;;;4.10;3.70;;;;;;;10.45;86.52;99283.88;342154;28;1108;-67
2022/11/05 01:16:41;;;;;;;4.18;3.78;;;;;;;10.44;86.80;99283.94;341998;28;1075;-67
2022/11/05 01:16:53;;;;;;;5.55;3.63;;;;;;;10.47;86.63;99281.22;341992;28;1114;-67
2022/11/05 01:17:05;;;;;;;5.82;3.95;;;;;;;10.45;86.57;99285.63;342310;28;1264;-67
2022/11/05 01:17:17;;;;;;;6.18;4.80;;;;;;;10.45;86.85;99280.44;343518;28;1067;-67
2022/11/05 01:17:28;;;;;;;6.15;5.55;;;;;;;10.49;86.57;99287.22;343506;28;1302;-67
2022/11/05 01:17:40;;;;;;;5.90;5.30;;;;;;;10.45;86.66;99288.25;342467;28;1402;-67
2022/11/05 01:17:52;;;;;;;5.13;4.60;;;;;;;10.47;86.71;99289.88;342111;28;1079;-68
2022/11/05 01:18:04;;;;;;;4.70;3.97;;;;;;;10.48;86.75;99290.72;342613;28;1771;-67
2022/11/05 01:18:17;;;;;;;5.00;4.28;;;;;;;10.47;86.22;99283.84;343835;28;947;-67
2022/11/05 01:18:29;;;;;;;7.18;6.10;;;;;;;10.49;86.68;99289.81;343453;28;1043;-67
2022/11/05 01:18:41;;;;;;;8.70;6.97;;;;;;;10.42;86.52;99280.53;343234;28;2150;-67
2022/11/05 01:18:53;;;;;;;8.38;6.93;;;;;;;10.37;86.58;99283.31;344670;28;1109;-67
2022/11/05 01:19:08;;;;;;;7.70;6.55;;;;;;;10.43;86.88;99290.06;342117;28;1145;-67
2022/11/05 01:19:19;;;;;;;8.27;7.47;;;;;;;10.45;86.88;99285.63;341791;28;1371;-67
2022/11/05 01:19:31;;;;;;;7.47;6.75;;;;;;;10.45;86.77;99288.25;342093;28;1024;-67
2022/11/05 01:19:43;;;;;;;7.55;6.00;;;;;;;10.46;86.95;99287.31;342033;28;1016;-67
2022/11/05 01:19:55;;;;;;;6.38;4.80;;;;;;;10.49;87.05;99285.47;342090;28;1045;-67
2022/11/05 01:20:08;;;;;;;7.10;5.00;;;;;;;10.50;86.77;99281.09;342172;28;1022;-67
2022/11/05 01:20:20;;;;;;;6.90;5.22;;;;;;;10.49;86.40;99287.22;342069;28;2209;-67
2022/11/05 01:20:32;;;;;;;6.50;4.97;;;;;;;10.51;86.63;99286.25;343175;28;1804;-68
2022/11/05 01:20:45;;;;;;;6.25;4.97;;;;;;;10.53;86.41;99283.59;343597;28;1086;-67
2022/11/05 01:20:57;;;;;;;5.72;4.68;;;;;;;10.47;86.55;99283.84;342696;28;1198;-67
2022/11/05 01:21:13;;;;;;;5.63;4.38;;;;;;;10.49;86.33;99282.03;343316;28;1375;-68
2022/11/05 01:21:25;;;;;;;5.32;4.82;;;;;;;10.54;86.13;99286.13;343371;28;1271;-67
2022/11/05 01:21:37;;;;;;;8.15;7.35;;;;;;;10.53;86.33;99286.19;343146;28;2042;-67
2022/11/05 01:21:49;;;;;;;10.55;9.55;;;;;;;10.56;86.17;99279.13;343262;28;1281;-67
2022/11/05 01:22:01;;;;;;;10.30;9.32;;;;;;;10.56;86.40;99283.47;343569;28;1096;-67
2022/11/05 01:22:12;;;;;;;7.85;7.10;;;;;;;10.59;86.30;99285.97;343491;28;1047;-67
2022/11/05 01:22:24;;;;;;;5.82;5.18;;;;;;;10.59;86.32;99285.97;343335;28;1375;-67
2022/11/05 01:22:37;;;;;;;5.82;4.82;;;;;;;10.55;86.41;99287.81;342499;28;1250;-67
2022/11/05 01:22:48;;;;;;;6.38;5.43;;;;;;;10.58;86.05;99290.31;342260;28;1176;-67
2022/11/05 01:23:00;;;;;;;6.80;5.85;;;;;;;10.58;86.30;99284.25;342176;28;1083;-67
2022/11/05 01:23:12;;;;;;;8.32;6.60;;;;;;;10.61;86.39;99285.91;342180;28;1011;-67
2022/11/05 01:23:24;;;;;;;7.70;6.07;;;;;;;10.53;86.29;99288.78;341953;28;1310;-67
2022/11/05 01:23:37;;;;;;;7.65;5.70;;;;;;;10.48;86.02;99286.34;342149;28;1752;-67
2022/11/05 01:23:49;;;;;;;7.72;5.45;;;;;;;10.51;86.23;99286.25;343544;28;1307;-67
2022/11/05 01:24:02;;;;;;;5.95;5.03;;;;;;;10.51;86.24;99285.41;343379;28;1165;-67
2022/11/05 01:24:14;;;;;;;5.60;4.80;;;;;;;10.51;86.15;99282.81;342112;28;1191;-67
2022/11/05 01:24:26;;;;;;;5.82;4.50;;;;;;;10.47;86.59;99289.88;342195;28;1084;-67
2022/11/05 01:24:38;;;;;;;4.87;4.03;;;;;;;10.48;86.72;99286.34;342615;28;1068;-68
2022/11/05 01:24:50;;;;;;;5.85;4.07;;;;;;;10.50;86.71;99288.91;343432;28;1052;-68
2022/11/05 01:25:02;;;;;;;6.32;4.47;;;;;;;10.48;86.48;99288.94;343441;28;1027;-68
2022/11/05 01:25:14;;;;;;;6.05;4.30;;;;;;;10.53;86.46;99291.38;342126;28;1028;-67
2022/11/05 01:25:26;;;;;;;5.85;4.00;;;;;;;10.55;86.52;99292.19;340851;29;1310;-68
2022/11/05 01:25:38;;;;;;;6.00;3.92;;;;;;;10.56;86.57;99288.66;340788;28;1780;-68
2022/11/05 01:25:50;;;;;;;6.22;3.90;;;;;;;10.56;86.44;99289.53;342147;28;1154;-68
2022/11/05 01:26:02;;;;;;;4.93;3.97;;;;;;;10.58;86.23;99292.91;341901;28;1246;-68
2022/11/05 01:26:14;;;;;;;5.70;4.20;;;;;;;10.56;86.38;99291.25;342120;28;1073;-67
2022/11/05 01:26:26;;;;;;;6.00;5.05;;;;;;;10.60;86.57;99290.22;342022;28;1232;-68
2022/11/05 01:26:38;;;;;;;6.45;5.28;;;;;;;10.58;86.51;99284.25;341658;28;2236;-67
2022/11/05 01:26:50;;;;;;;5.82;5.22;;;;;;;10.59;86.40;99288.56;341907;28;1682;-67
2022/11/05 01:27:01;;;;;;;5.85;4.88;;;;;;;10.57;86.28;99291.22;341667;28;1328;-67